Time;durP1;ratioP1;P1;durP2;ratioP2;P2;SDS_P1;SDS_P2;PMS_P1;PMS_P2;Temp;Humidity;BMP_temperature;BMP_pressure;BME280_temperature;BME280_humidity;BME280_pressure;Samples;Min_cycle;Max_cycle;Signal;HPM_P1;HPM_P2
2024/01/18 00:00:20;;;;;;;6.60;3.85;;;19.70;43.90;;;;;;5091134;28;20120;-79
2024/01/18 00:02:46;;;;;;;4.32;3.13;;;19.80;43.80;;;;;;5091519;28;20032;-78
2024/01/18 00:05:13;;;;;;;5.88;2.88;;;19.70;43.80;;;;;;5089670;28;20113;-79
2024/01/18 00:07:39;;;;;;;6.68;3.63;;;19.80;43.80;;;;;;5092510;28;20127;-78
2024/01/18 00:10:06;;;;;;;4.45;3.58;;;19.80;43.80;;;;;;5092128;28;20125;-79
2024/01/18 00:12:35;;;;;;;6.97;3.72;;;19.70;43.80;;;;;;5091041;28;20060;-79
2024/01/18 00:15:01;;;;;;;5.47;3.50;;;19.80;43.90;;;;;;5092020;28;20107;-79
2024/01/18 00:17:30;;;;;;;5.00;3.15;;;19.70;43.80;;;;;;5091882;28;20504;-79
2024/01/18 00:19:56;;;;;;;5.63;3.55;;;19.70;43.80;;;;;;5092110;28;20035;-78
2024/01/18 00:22:22;;;;;;;5.25;3.30;;;19.60;43.80;;;;;;5092109;28;20070;-79
2024/01/18 00:24:48;;;;;;;8.93;3.38;;;19.60;43.80;;;;;;5090627;28;20071;-79
2024/01/18 00:27:14;;;;;;;4.93;3.58;;;19.80;44.00;;;;;;5090634;28;20036;-79
2024/01/18 00:29:40;;;;;;;5.28;3.90;;;19.60;43.90;;;;;;5091807;28;20024;-79
2024/01/18 00:32:07;;;;;;;6.63;3.90;;;19.60;43.90;;;;;;5091984;28;20059;-78
2024/01/18 00:34:33;;;;;;;6.07;3.67;;;19.60;43.90;;;;;;5091936;28;20043;-79
2024/01/18 00:36:59;;;;;;;4.38;2.90;;;19.60;43.90;;;;;;5091575;28;20089;-79
2024/01/18 00:39:25;;;;;;;4.00;3.00;;;19.60;43.90;;;;;;5091946;28;20111;-77
2024/01/18 00:41:51;;;;;;;4.07;3.47;;;19.60;44.00;;;;;;5090653;28;20543;-79
2024/01/18 00:44:17;;;;;;;5.05;3.25;;;19.50;44.00;;;;;;5071797;28;20029;-78
2024/01/18 00:46:43;;;;;;;4.40;2.88;;;19.60;43.90;;;;;;5068950;28;20135;-78
2024/01/18 00:49:09;;;;;;;4.80;3.08;;;19.70;44.00;;;;;;5101539;28;20131;-78
2024/01/18 00:51:35;;;;;;;5.55;2.90;;;19.60;43.80;;;;;;5111712;28;20752;-79
2024/01/18 00:54:04;;;;;;;7.32;3.80;;;19.70;43.90;;;;;;5073970;28;20115;-79
2024/01/18 00:56:31;;;;;;;3.38;2.78;;;19.70;43.90;;;;;;5071042;28;20610;-78
2024/01/18 00:58:57;;;;;;;4.57;3.30;;;19.70;43.90;;;;;;5071289;28;20025;-78
2024/01/18 01:01:23;;;;;;;4.85;3.28;;;19.60;43.80;;;;;;5071362;28;20068;-79
2024/01/18 01:03:49;;;;;;;5.47;3.03;;;19.70;43.80;;;;;;5071364;28;20079;-79
2024/01/18 01:06:15;;;;;;;7.18;3.30;;;19.80;43.80;;;;;;5069666;28;20440;-77
2024/01/18 01:08:41;;;;;;;4.63;3.33;;;19.70;43.80;;;;;;5071139;28;20033;-78
2024/01/18 01:11:10;;;;;;;6.05;3.67;;;19.70;43.70;;;;;;5070960;28;20120;-79
2024/01/18 01:13:36;;;;;;;3.53;3.08;;;19.80;43.70;;;;;;5071003;28;20051;-78
2024/01/18 01:16:02;;;;;;;4.63;3.25;;;19.70;43.60;;;;;;5070758;28;20429;-77
2024/01/18 01:18:28;;;;;;;4.97;3.03;;;19.70;43.60;;;;;;5070933;28;20056;-76
2024/01/18 01:20:54;;;;;;;4.53;3.25;;;19.70;43.70;;;;;;5071120;28;20025;-78
2024/01/18 01:23:20;;;;;;;3.20;2.50;;;19.70;43.70;;;;;;5071012;28;20032;-78
2024/01/18 01:25:46;;;;;;;6.75;3.33;;;19.70;43.70;;;;;;5070723;28;20024;-78
2024/01/18 01:28:12;;;;;;;5.10;3.05;;;19.70;43.80;;;;;;5070932;28;20021;-78
2024/01/18 01:30:38;;;;;;;2.97;2.20;;;19.70;43.80;;;;;;5070905;28;20039;-78
2024/01/18 01:33:05;;;;;;;2.25;2.03;;;19.50;43.70;;;;;;5069654;28;20024;-78
2024/01/18 01:35:31;;;;;;;2.10;1.90;;;19.70;43.80;;;;;;5070705;28;20043;-79
2024/01/18 01:37:57;;;;;;;3.53;2.13;;;19.70;43.90;;;;;;5070680;28;20381;-79
2024/01/18 01:40:23;;;;;;;2.22;2.03;;;19.70;43.90;;;;;;5070791;28;20047;-79
2024/01/18 01:42:49;;;;;;;2.97;2.45;;;19.80;43.90;;;;;;5070622;28;20048;-79
2024/01/18 01:45:15;;;;;;;4.45;2.25;;;19.70;43.90;;;;;;5070855;28;20127;-79
2024/01/18 01:47:41;;;;;;;3.97;2.42;;;19.70;43.90;;;;;;5070862;28;20036;-79
2024/01/18 01:50:08;;;;;;;4.32;2.88;;;19.70;43.90;;;;;;5070654;28;20571;-79
2024/01/18 01:52:36;;;;;;;3.05;2.42;;;19.60;43.90;;;;;;5070582;28;20074;-79
2024/01/18 01:55:03;;;;;;;3.35;2.65;;;19.60;43.90;;;;;;5088042;28;20062;-79
2024/01/18 01:57:30;;;;;;;4.70;2.92;;;19.60;44.00;;;;;;5088219;28;20393;-79
2024/01/18 01:59:56;;;;;;;5.22;2.72;;;19.60;44.00;;;;;;5071496;28;20075;-79
2024/01/18 02:02:25;;;;;;;2.92;2.25;;;19.60;44.10;;;;;;5088214;28;20123;-77
2024/01/18 02:04:53;;;;;;;4.18;3.10;;;19.60;44.10;;;;;;5071547;28;20036;-77
2024/01/18 02:07:20;;;;;;;4.53;3.15;;;19.60;44.10;;;;;;5054080;28;20044;-76
2024/01/18 02:09:47;;;;;;;5.25;2.85;;;19.60;44.00;;;;;;5088148;28;20523;-78
2024/01/18 02:12:14;;;;;;;4.72;2.67;;;19.50;44.10;;;;;;5088084;28;20036;-79
2024/01/18 02:14:41;;;;;;;6.30;2.63;;;19.60;44.10;;;;;;5088107;28;20090;-79
2024/01/18 02:17:07;;;;;;;5.03;2.78;;;19.60;44.10;;;;;;5087446;28;20060;-79
2024/01/18 02:19:33;;;;;;;3.67;2.75;;;19.70;44.10;;;;;;5088209;28;20077;-78
2024/01/18 02:22:02;;;;;;;5.18;2.65;;;19.70;44.10;;;;;;5088046;28;20087;-79
2024/01/18 02:24:55;;;;;;;4.93;3.15;;;19.70;44.00;;;;;;5088936;28;20531;-77
2024/01/18 02:27:21;;;;;;;4.15;2.50;;;19.70;44.00;;;;;;5091704;28;20050;-78
2024/01/18 02:29:48;;;;;;;4.28;2.70;;;19.70;44.00;;;;;;5074820;28;20111;-78
2024/01/18 02:32:14;;;;;;;3.50;2.85;;;19.70;43.90;;;;;;5084409;28;20083;-78
2024/01/18 02:34:43;;;;;;;4.13;2.50;;;19.80;43.80;;;;;;5073541;28;20036;-79
2024/01/18 02:37:10;;;;;;;6.78;3.55;;;19.70;43.80;;;;;;5073656;28;20381;-77
2024/01/18 02:39:37;;;;;;;4.70;3.10;;;19.80;43.70;;;;;;5073768;28;20035;-78
2024/01/18 02:42:03;;;;;;;3.45;2.70;;;19.80;43.60;;;;;;5073763;28;20029;-79
2024/01/18 02:44:31;;;;;;;3.78;2.45;;;19.80;43.60;;;;;;5076163;28;20036;-79
2024/01/18 02:46:57;;;;;;;4.18;3.03;;;19.80;43.50;;;;;;5073322;28;20037;-79
2024/01/18 02:49:23;;;;;;;5.25;3.50;;;19.80;43.50;;;;;;5090549;28;20065;-77
2024/01/18 02:51:49;;;;;;;3.50;3.20;;;19.90;43.50;;;;;;5114066;28;20536;-78
2024/01/18 02:54:15;;;;;;;4.53;3.05;;;19.90;43.40;;;;;;5114180;28;20044;-79
2024/01/18 02:56:42;;;;;;;5.15;2.83;;;19.90;43.40;;;;;;5112422;28;20024;-78
2024/01/18 02:59:08;;;;;;;3.65;2.90;;;19.90;43.30;;;;;;5094594;28;20046;-79
2024/01/18 03:01:34;;;;;;;4.97;2.88;;;19.90;43.20;;;;;;5113884;28;20046;-79
2024/01/18 03:04:00;;;;;;;4.95;3.05;;;20.00;43.20;;;;;;5111577;28;20051;-79
2024/01/18 03:06:26;;;;;;;3.17;2.40;;;20.10;43.20;;;;;;5113694;28;20114;-79
2024/01/18 03:08:52;;;;;;;6.63;3.17;;;19.90;43.10;;;;;;5113661;28;20031;-77
2024/01/18 03:11:18;;;;;;;4.43;2.75;;;20.00;43.00;;;;;;5113653;28;20118;-78
2024/01/18 03:13:45;;;;;;;4.55;3.08;;;19.90;43.00;;;;;;5113741;28;20043;-79
2024/01/18 03:16:12;;;;;;;4.20;2.95;;;20.00;43.00;;;;;;5113017;28;20028;-79
2024/01/18 03:18:38;;;;;;;3.60;2.78;;;20.10;43.10;;;;;;5113523;28;20032;-78
2024/01/18 03:21:07;;;;;;;3.95;3.00;;;20.10;43.10;;;;;;5113473;28;20352;-79
2024/01/18 03:23:33;;;;;;;4.95;3.25;;;20.10;43.00;;;;;;5113586;28;20039;-78
2024/01/18 03:25:59;;;;;;;5.88;2.90;;;20.10;43.00;;;;;;5113265;28;20034;-79
2024/01/18 03:28:26;;;;;;;5.95;3.15;;;20.00;42.90;;;;;;5111912;28;20036;-79
2024/01/18 03:30:52;;;;;;;4.55;3.30;;;20.00;42.90;;;;;;5113303;28;20485;-76
2024/01/18 03:33:18;;;;;;;5.53;3.30;;;20.00;42.90;;;;;;5113005;28;20578;-79
2024/01/18 03:35:45;;;;;;;4.43;2.75;;;19.90;42.90;;;;;;5113241;28;20035;-78
2024/01/18 03:38:11;;;;;;;4.35;3.40;;;20.00;42.90;;;;;;5113110;28;20074;-79
2024/01/18 03:40:37;;;;;;;3.72;2.88;;;20.00;42.90;;;;;;5111739;28;20034;-78
2024/01/18 03:43:04;;;;;;;4.40;3.00;;;19.80;42.90;;;;;;5111687;28;20391;-77
2024/01/18 03:45:30;;;;;;;4.18;2.70;;;20.00;43.00;;;;;;5112836;28;20118;-78
2024/01/18 03:47:56;;;;;;;4.05;2.97;;;19.90;43.00;;;;;;5112969;28;20766;-79
2024/01/18 03:50:23;;;;;;;4.88;3.13;;;19.90;43.00;;;;;;5112700;28;20036;-77
2024/01/18 03:52:49;;;;;;;3.65;2.83;;;19.90;43.00;;;;;;5112913;28;20032;-79
2024/01/18 03:55:15;;;;;;;9.07;3.45;;;20.00;43.00;;;;;;5112874;28;20039;-78
2024/01/18 03:57:41;;;;;;;5.57;2.50;;;20.00;42.90;;;;;;5112583;28;20456;-78
2024/01/18 04:00:09;;;;;;;4.72;3.00;;;19.90;42.90;;;;;;5112703;28;20084;-79
2024/01/18 04:02:35;;;;;;;3.45;2.70;;;20.00;42.80;;;;;;5112881;28;20035;-78
2024/01/18 04:05:01;;;;;;;4.05;2.40;;;20.00;42.80;;;;;;5112773;28;20063;-78
2024/01/18 04:07:28;;;;;;;4.97;3.08;;;19.90;42.70;;;;;;5112686;28;20038;-75
2024/01/18 04:09:54;;;;;;;5.75;3.72;;;20.00;42.70;;;;;;5112626;28;20039;-78
2024/01/18 04:12:20;;;;;;;3.78;2.75;;;20.00;42.70;;;;;;5112503;28;20042;-78
2024/01/18 04:14:46;;;;;;;5.18;3.22;;;20.00;42.60;;;;;;5112515;28;20391;-79
2024/01/18 04:17:12;;;;;;;6.47;3.40;;;20.00;42.60;;;;;;5111874;28;20230;-78
2024/01/18 04:19:39;;;;;;;4.13;2.95;;;20.00;42.60;;;;;;5112303;28;20039;-79
2024/01/18 04:22:06;;;;;;;4.72;3.17;;;20.50;43.10;;;;;;5112330;28;20113;-78
2024/01/18 04:24:33;;;;;;;4.47;2.83;;;20.30;43.30;;;;;;5112321;28;20043;-78
2024/01/18 04:26:59;;;;;;;4.70;2.92;;;20.00;43.50;;;;;;5112163;28;20024;-79
2024/01/18 04:29:27;;;;;;;4.88;3.25;;;20.10;42.50;;;;;;5109915;28;20051;-79
2024/01/18 04:31:53;;;;;;;4.63;3.63;;;20.00;43.40;;;;;;5112207;28;20032;-79
2024/01/18 04:34:19;;;;;;;3.83;2.95;;;20.00;43.40;;;;;;5112288;28;20055;-78
2024/01/18 04:36:45;;;;;;;5.18;3.35;;;20.10;43.40;;;;;;5111885;28;20399;-78
2024/01/18 04:39:12;;;;;;;3.60;2.78;;;20.20;43.30;;;;;;5112095;28;20039;-79
2024/01/18 04:41:38;;;;;;;4.50;3.50;;;20.10;43.20;;;;;;5110748;28;20028;-79
2024/01/18 04:44:04;;;;;;;5.78;3.53;;;20.10;43.30;;;;;;5094531;28;20118;-77
2024/01/18 04:46:30;;;;;;;6.18;3.28;;;20.20;41.80;;;;;;5111877;28;20454;-78
2024/01/18 04:48:56;;;;;;;5.00;3.50;;;20.20;43.20;;;;;;5112551;28;20050;-79
2024/01/18 04:51:23;;;;;;;5.65;3.58;;;20.00;42.00;;;;;;5086109;28;20036;-78
2024/01/18 04:53:49;;;;;;;6.22;3.63;;;20.10;42.50;;;;;;5069806;28;20479;-79
2024/01/18 04:56:15;;;;;;;8.35;3.90;;;19.90;42.50;;;;;;5073838;28;20447;-79
2024/01/18 04:58:42;;;;;;;8.15;3.65;;;19.90;42.60;;;;;;5093504;28;20028;-78
2024/01/18 05:01:08;;;;;;;5.47;4.03;;;20.00;42.60;;;;;;5091214;28;20039;-79
2024/01/18 05:03:34;;;;;;;5.78;3.65;;;20.00;42.70;;;;;;5091354;28;20105;-78
2024/01/18 05:06:00;;;;;;;7.13;4.30;;;20.00;42.70;;;;;;5090899;28;20383;-77
2024/01/18 05:08:26;;;;;;;6.70;4.20;;;19.90;42.70;;;;;;5090888;28;20434;-78
2024/01/18 05:10:53;;;;;;;8.25;4.47;;;20.00;42.70;;;;;;5091110;28;20070;-78
2024/01/18 05:13:20;;;;;;;6.75;4.25;;;19.90;42.70;;;;;;5090854;28;20114;-77
2024/01/18 05:15:47;;;;;;;7.30;3.35;;;19.80;42.60;;;;;;5090918;28;20047;-77
2024/01/18 05:18:14;;;;;;;5.88;3.08;;;19.20;42.30;;;;;;5089449;28;20048;-79
2024/01/18 05:20:40;;;;;;;6.85;3.63;;;19.90;42.70;;;;;;5088736;28;20048;-78
2024/01/18 05:23:06;;;;;;;4.82;3.17;;;19.90;42.70;;;;;;5089616;28;20047;-79
2024/01/18 05:25:32;;;;;;;3.35;3.05;;;20.00;42.70;;;;;;5089952;28;20032;-77
2024/01/18 05:28:02;;;;;;;5.18;3.47;;;19.90;43.70;;;;;;5090652;28;20036;-78
2024/01/18 05:30:28;;;;;;;5.57;3.47;;;19.90;42.50;;;;;;5091244;28;20062;-78
2024/01/18 05:32:54;;;;;;;6.20;4.10;;;20.00;43.30;;;;;;5090784;28;20171;-79
2024/01/18 05:35:20;;;;;;;6.25;3.80;;;19.80;42.60;;;;;;5090928;28;20028;-78
2024/01/18 05:37:46;;;;;;;5.03;3.20;;;19.80;42.70;;;;;;5090459;28;20028;-77
2024/01/18 05:40:12;;;;;;;5.95;4.13;;;19.80;42.70;;;;;;5090769;28;20028;-77
2024/01/18 05:42:38;;;;;;;5.90;4.03;;;19.80;42.70;;;;;;5090801;28;20056;-78
2024/01/18 05:45:06;;;;;;;4.97;3.47;;;19.90;42.80;;;;;;5090823;28;20032;-78
2024/01/18 05:47:32;;;;;;;5.38;3.83;;;19.70;42.80;;;;;;5089579;28;20044;-78
2024/01/18 05:49:58;;;;;;;5.90;3.67;;;19.80;42.90;;;;;;5090746;28;20093;-78
2024/01/18 05:52:24;;;;;;;4.90;3.60;;;19.80;42.90;;;;;;5090845;28;20111;-78
2024/01/18 05:54:52;;;;;;;8.27;4.15;;;19.80;42.90;;;;;;5088430;28;20437;-78
2024/01/18 05:57:18;;;;;;;5.03;3.63;;;19.90;43.70;;;;;;5089044;28;20039;-78
2024/01/18 05:59:44;;;;;;;5.45;3.45;;;19.90;43.50;;;;;;5091875;28;20059;-77
2024/01/18 06:02:10;;;;;;;6.20;4.00;;;19.90;43.40;;;;;;5094558;28;20032;-77
2024/01/18 06:04:36;;;;;;;7.40;3.83;;;19.90;43.40;;;;;;5094590;28;20030;-79
2024/01/18 06:07:03;;;;;;;5.22;3.65;;;20.00;43.20;;;;;;5092888;28;20028;-79
2024/01/18 06:09:29;;;;;;;6.53;3.70;;;19.90;43.10;;;;;;5094542;28;20499;-79
2024/01/18 06:11:55;;;;;;;7.45;3.35;;;20.00;43.10;;;;;;5094403;28;20070;-79
2024/01/18 06:14:22;;;;;;;4.43;3.35;;;20.00;42.80;;;;;;5094408;28;20032;-79
2024/01/18 06:16:48;;;;;;;5.68;3.45;;;20.10;43.20;;;;;;5094039;28;20045;-79
2024/01/18 06:19:14;;;;;;;6.88;3.67;;;20.00;43.00;;;;;;5092858;28;20463;-79
2024/01/18 06:21:41;;;;;;;4.50;3.20;;;20.10;42.90;;;;;;5094310;28;20093;-78
2024/01/18 06:24:07;;;;;;;7.50;3.20;;;20.00;42.70;;;;;;5094129;28;20028;-79
2024/01/18 06:26:33;;;;;;;6.05;3.63;;;20.20;42.80;;;;;;5094226;28;20032;-77
2024/01/18 06:29:00;;;;;;;5.95;4.25;;;20.10;42.80;;;;;;5093982;28;20048;-79
2024/01/18 06:31:29;;;;;;;5.85;3.63;;;20.20;42.80;;;;;;5094075;28;20043;-78
2024/01/18 06:33:56;;;;;;;6.45;4.05;;;20.20;42.80;;;;;;5093674;28;20394;-78
2024/01/18 06:36:22;;;;;;;6.55;4.07;;;20.10;42.90;;;;;;5093930;28;20110;-78
2024/01/18 06:38:49;;;;;;;5.20;3.90;;;20.00;42.80;;;;;;5093623;28;20040;-78
2024/01/18 06:41:16;;;;;;;6.97;4.43;;;20.10;43.00;;;;;;5091586;28;20133;-78
2024/01/18 06:43:43;;;;;;;6.00;4.45;;;20.10;42.90;;;;;;5094091;28;20135;-76
2024/01/18 06:46:18;;;;;;;6.25;3.88;;;20.10;43.00;;;;;;5092777;28;20458;-77
2024/01/18 06:48:52;;;;;;;8.05;3.90;;;20.00;43.00;;;;;;5091933;28;20034;-79
2024/01/18 06:51:21;;;;;;;6.15;3.30;;;19.90;43.00;;;;;;5093854;28;20032;-78
2024/01/18 06:53:48;;;;;;;4.53;3.72;;;20.00;43.10;;;;;;5092357;28;20483;-79
2024/01/18 06:56:14;;;;;;;6.15;3.58;;;19.90;43.30;;;;;;5093552;28;20544;-78
2024/01/18 06:58:41;;;;;;;5.40;3.60;;;19.90;43.00;;;;;;5091589;28;20028;-79
2024/01/18 07:01:07;;;;;;;6.47;3.10;;;19.90;43.20;;;;;;5093212;28;20131;-79
2024/01/18 07:03:35;;;;;;;6.10;3.83;;;20.00;43.10;;;;;;5093406;28;20032;-79
2024/01/18 07:06:02;;;;;;;8.02;4.28;;;20.00;43.00;;;;;;5094189;28;20039;-79
2024/01/18 07:08:31;;;;;;;6.53;3.80;;;20.10;43.00;;;;;;5091909;28;20115;-79
2024/01/18 07:10:58;;;;;;;4.85;3.67;;;20.10;42.90;;;;;;5092656;28;20391;-77
2024/01/18 07:13:26;;;;;;;6.38;4.28;;;20.00;42.80;;;;;;5093017;28;20107;-77
2024/01/18 07:15:53;;;;;;;7.25;3.80;;;20.20;43.00;;;;;;5093247;28;20043;-78
2024/01/18 07:18:19;;;;;;;4.72;3.35;;;20.10;43.00;;;;;;5092579;28;20049;-79
2024/01/18 07:20:45;;;;;;;4.90;3.45;;;20.10;43.00;;;;;;5093018;28;20028;-79
2024/01/18 07:23:11;;;;;;;9.77;4.43;;;20.10;42.50;;;;;;5092985;28;20028;-80
2024/01/18 07:25:37;;;;;;;6.50;4.60;;;20.00;41.90;;;;;;5093032;28;20391;-78
2024/01/18 07:28:03;;;;;;;6.05;3.92;;;20.20;43.20;;;;;;5092859;28;20403;-78
2024/01/18 07:30:29;;;;;;;7.43;3.70;;;20.10;43.00;;;;;;5092954;28;20038;-78
2024/01/18 07:32:55;;;;;;;7.75;5.38;;;20.10;42.90;;;;;;5092685;28;20422;-79
2024/01/18 07:35:21;;;;;;;6.72;4.30;;;20.10;42.90;;;;;;5107627;28;20062;-79
2024/01/18 07:37:47;;;;;;;5.85;3.83;;;20.10;41.80;;;;;;5092495;28;20036;-77
2024/01/18 07:40:14;;;;;;;8.77;4.95;;;20.10;43.30;;;;;;5092716;28;20541;-78
2024/01/18 07:42:40;;;;;;;7.60;4.15;;;20.10;43.00;;;;;;5092711;28;20093;-78
2024/01/18 07:45:07;;;;;;;7.40;4.10;;;20.10;43.00;;;;;;5092872;28;20051;-77
2024/01/18 07:47:33;;;;;;;10.70;5.18;;;20.10;42.90;;;;;;5107077;28;20484;-79
2024/01/18 07:49:59;;;;;;;9.23;4.93;;;20.00;42.80;;;;;;5110351;28;20104;-79
2024/01/18 07:52:25;;;;;;;8.18;4.57;;;20.10;42.90;;;;;;5110442;28;20048;-77
2024/01/18 07:54:51;;;;;;;10.65;5.00;;;20.00;42.90;;;;;;5110140;28;20168;-78
2024/01/18 07:57:18;;;;;;;7.85;4.97;;;20.20;43.10;;;;;;5092868;28;20040;-78
2024/01/18 07:59:44;;;;;;;5.75;4.20;;;20.10;43.10;;;;;;5110196;28;20035;-78
2024/01/18 08:02:10;;;;;;;5.50;4.38;;;20.00;43.00;;;;;;5110281;28;20092;-78
2024/01/18 08:04:36;;;;;;;6.78;5.20;;;20.00;43.00;;;;;;5110024;28;20048;-79
2024/01/18 08:07:02;;;;;;;9.52;5.38;;;20.20;43.10;;;;;;5109934;28;20123;-79
2024/01/18 08:09:28;;;;;;;9.48;5.00;;;20.10;43.20;;;;;;5075936;28;20046;-78
2024/01/18 08:11:54;;;;;;;7.65;4.90;;;19.10;42.70;;;;;;5109755;28;20028;-78
2024/01/18 08:14:20;;;;;;;10.27;5.05;;;20.00;43.00;;;;;;5109977;28;20100;-79
2024/01/18 08:16:49;;;;;;;8.73;5.20;;;20.10;43.10;;;;;;5109476;28;20079;-78
2024/01/18 08:19:15;;;;;;;12.30;5.35;;;20.10;43.10;;;;;;5109734;28;20488;-79
2024/01/18 08:21:45;;;;;;;9.13;5.82;;;20.00;43.00;;;;;;5095202;28;20036;-78
2024/01/18 08:24:11;;;;;;;9.98;5.00;;;20.00;42.90;;;;;;5091574;28;20032;-79
2024/01/18 08:26:38;;;;;;;8.23;5.28;;;20.10;42.10;;;;;;5091580;28;20028;-78
2024/01/18 08:29:04;;;;;;;10.13;5.07;;;20.00;42.10;;;;;;5091577;28;20047;-77
2024/01/18 08:31:30;;;;;;;6.60;5.07;;;19.90;42.50;;;;;;5091679;28;20035;-78
2024/01/18 08:33:56;;;;;;;8.43;5.43;;;19.90;42.80;;;;;;5091801;28;20451;-77
2024/01/18 08:36:23;;;;;;;9.70;6.22;;;19.90;43.70;;;;;;5091435;28;20047;-74
2024/01/18 08:38:49;;;;;;;10.55;5.78;;;20.00;43.30;;;;;;5090002;28;20052;-78
2024/01/18 08:41:15;;;;;;;11.25;6.72;;;20.10;43.20;;;;;;5091901;28;20111;-78
2024/01/18 08:43:41;;;;;;;10.02;6.28;;;20.10;43.10;;;;;;5091209;28;20055;-77
2024/01/18 08:46:07;;;;;;;8.20;5.65;;;20.10;43.00;;;;;;5088587;28;20040;-77
2024/01/18 08:48:37;;;;;;;10.45;6.47;;;20.10;43.10;;;;;;5091484;28;20040;-76
2024/01/18 08:51:03;;;;;;;10.82;6.70;;;20.20;43.10;;;;;;5091453;28;20048;-79
2024/01/18 08:53:30;;;;;;;14.38;7.25;;;20.00;43.00;;;;;;5072557;28;20044;-79
2024/01/18 08:55:56;;;;;;;14.43;7.03;;;20.00;43.10;;;;;;5091519;28;20042;-79
2024/01/18 08:58:23;;;;;;;12.07;7.10;;;20.10;43.20;;;;;;5090907;28;20077;-79
2024/01/18 09:00:49;;;;;;;11.23;7.05;;;20.10;43.20;;;;;;5078810;28;20092;-79
2024/01/18 09:03:15;;;;;;;12.48;7.43;;;20.00;43.20;;;;;;5095123;28;20510;-79
2024/01/18 09:05:41;;;;;;;13.30;6.53;;;20.00;43.20;;;;;;5111453;28;20084;-78
2024/01/18 09:08:07;;;;;;;14.93;6.70;;;19.60;42.40;;;;;;5111322;28;20028;-79
2024/01/18 09:10:34;;;;;;;10.02;7.22;;;20.00;43.20;;;;;;5111384;28;20475;-78
2024/01/18 09:13:00;;;;;;;11.82;6.70;;;20.00;43.20;;;;;;5110238;28;20031;-79
2024/01/18 09:15:26;;;;;;;10.80;6.90;;;20.00;43.20;;;;;;5111621;28;20313;-79
2024/01/18 09:17:52;;;;;;;10.55;6.03;;;19.90;43.40;;;;;;5111043;28;20056;-79
2024/01/18 09:20:19;;;;;;;12.60;6.40;;;20.00;43.30;;;;;;5111401;28;20070;-79
2024/01/18 09:22:45;;;;;;;11.80;6.55;;;20.00;43.30;;;;;;5111496;28;20110;-79
2024/01/18 09:25:11;;;;;;;11.90;6.80;;;20.00;43.30;;;;;;5110097;28;20024;-77
2024/01/18 09:27:37;;;;;;;7.22;5.85;;;20.10;43.30;;;;;;5111152;28;20031;-77
2024/01/18 09:30:04;;;;;;;11.00;6.82;;;20.00;43.20;;;;;;5111270;28;20055;-78
2024/01/18 09:32:30;;;;;;;9.23;6.97;;;20.00;43.30;;;;;;5111310;28;20066;-78
2024/01/18 09:34:56;;;;;;;8.88;5.95;;;20.00;43.30;;;;;;5114774;28;20092;-78
2024/01/18 09:37:22;;;;;;;8.65;6.00;;;20.00;43.20;;;;;;5114928;28;20040;-78
2024/01/18 09:39:48;;;;;;;9.23;6.32;;;20.10;43.20;;;;;;5115359;28;20498;-79
2024/01/18 09:42:17;;;;;;;12.93;6.97;;;20.00;43.20;;;;;;5115168;28;20122;-78
2024/01/18 09:44:47;;;;;;;9.95;7.00;;;20.10;43.20;;;;;;5113858;28;20169;-78
2024/01/18 09:47:17;;;;;;;8.52;6.05;;;20.10;43.20;;;;;;5115160;28;20027;-78
2024/01/18 09:49:45;;;;;;;11.90;7.63;;;20.20;43.20;;;;;;5115120;28;20546;-79
2024/01/18 09:52:12;;;;;;;11.90;7.13;;;20.10;43.20;;;;;;5115085;28;20043;-78
2024/01/18 09:54:39;;;;;;;11.13;6.95;;;20.00;43.00;;;;;;5130080;27;20114;-77
2024/01/18 09:57:08;;;;;;;10.02;6.68;;;20.10;43.10;;;;;;5115190;28;20028;-78
2024/01/18 09:59:36;;;;;;;9.48;6.95;;;20.10;43.20;;;;;;5113539;28;20038;-79
2024/01/18 10:02:03;;;;;;;7.47;6.57;;;20.30;43.30;;;;;;5113566;28;20394;-78
2024/01/18 10:04:31;;;;;;;16.75;6.82;;;20.50;43.30;;;;;;5113715;28;20024;-78
2024/01/18 10:06:57;;;;;;;12.13;6.57;;;20.00;43.20;;;;;;5114797;28;20368;-78
2024/01/18 10:09:23;;;;;;;11.32;7.47;;;19.90;43.20;;;;;;5114579;28;20028;-77
2024/01/18 10:11:49;;;;;;;11.23;6.40;;;20.30;43.30;;;;;;5114843;28;20457;-78
2024/01/18 10:14:15;;;;;;;15.00;6.90;;;20.00;43.10;;;;;;5114794;28;20027;-79
2024/01/18 10:16:42;;;;;;;10.05;6.78;;;20.00;43.30;;;;;;5113187;28;20153;-78
2024/01/18 10:19:18;;;;;;;9.23;6.18;;;20.00;43.30;;;;;;5114698;28;20157;-77
2024/01/18 10:21:46;;;;;;;14.60;7.05;;;20.10;43.50;;;;;;5114607;28;20043;-79
2024/01/18 10:24:14;;;;;;;10.60;7.38;;;19.90;43.40;;;;;;5114448;28;20055;-77
2024/01/18 10:26:40;;;;;;;9.55;6.45;;;20.00;43.40;;;;;;5114505;28;20027;-79
2024/01/18 10:29:11;;;;;;;8.48;6.15;;;20.00;43.50;;;;;;5114382;28;20475;-79
2024/01/18 10:31:42;;;;;;;13.02;6.32;;;19.90;43.50;;;;;;5114388;28;20039;-78
2024/01/18 10:34:08;;;;;;;10.55;7.10;;;20.10;43.50;;;;;;5114289;28;20071;-78
2024/01/18 10:36:34;;;;;;;10.48;6.75;;;20.00;43.40;;;;;;5112786;28;20459;-79
2024/01/18 10:39:18;;;;;;;10.05;6.07;;;20.00;43.40;;;;;;5113885;28;20580;-77
2024/01/18 10:41:45;;;;;;;11.18;7.05;;;20.00;43.50;;;;;;5113960;28;20089;-78
2024/01/18 10:44:14;;;;;;;10.55;6.38;;;20.10;43.40;;;;;;5114148;28;20031;-78
2024/01/18 10:46:41;;;;;;;9.73;6.47;;;20.10;43.50;;;;;;5111163;28;20329;-78
2024/01/18 10:49:08;;;;;;;14.27;6.57;;;20.00;43.40;;;;;;5075606;28;20075;-78
2024/01/18 10:51:37;;;;;;;10.18;5.97;;;20.00;43.30;;;;;;5073316;28;20043;-78
2024/01/18 10:54:09;;;;;;;8.15;6.07;;;20.10;43.40;;;;;;5073170;28;20135;-77
2024/01/18 10:56:36;;;;;;;11.02;7.35;;;20.00;43.20;;;;;;5071877;28;20452;-78
2024/01/18 10:59:04;;;;;;;14.98;7.43;;;20.10;43.30;;;;;;5090937;28;20453;-79
2024/01/18 11:01:32;;;;;;;15.07;8.40;;;20.20;43.20;;;;;;5095660;28;20036;-78
2024/01/18 11:03:58;;;;;;;13.02;7.53;;;20.10;43.30;;;;;;5093441;28;20495;-78
2024/01/18 11:06:27;;;;;;;12.20;7.03;;;20.00;43.30;;;;;;5093291;28;20372;-78
2024/01/18 11:08:54;;;;;;;15.95;7.63;;;20.10;43.40;;;;;;5093355;28;20032;-78
2024/01/18 11:11:20;;;;;;;10.68;7.07;;;20.20;43.30;;;;;;5093087;28;20400;-74
2024/01/18 11:13:47;;;;;;;9.95;7.30;;;20.10;43.40;;;;;;5093354;28;20119;-79
2024/01/18 11:16:13;;;;;;;12.10;7.53;;;20.00;43.40;;;;;;5092933;28;20028;-78
2024/01/18 11:18:39;;;;;;;10.75;6.72;;;20.00;43.30;;;;;;5092938;28;20029;-79
2024/01/18 11:21:08;;;;;;;12.25;7.50;;;19.90;43.40;;;;;;5093062;28;20043;-78
2024/01/18 11:23:41;;;;;;;8.95;6.90;;;19.90;43.40;;;;;;5093008;28;20031;-78
2024/01/18 11:26:08;;;;;;;10.40;6.85;;;20.00;43.50;;;;;;5093103;28;20028;-79
2024/01/18 11:28:35;;;;;;;10.38;6.63;;;20.10;43.60;;;;;;5093002;28;20771;-79
2024/01/18 11:31:01;;;;;;;9.90;7.03;;;19.90;43.50;;;;;;5092976;28;20036;-79
2024/01/18 11:33:28;;;;;;;11.25;7.15;;;20.00;43.50;;;;;;5092839;28;20032;-79
2024/01/18 11:35:56;;;;;;;11.52;7.28;;;20.00;43.60;;;;;;5092914;28;20506;-79
2024/01/18 11:38:24;;;;;;;10.52;6.90;;;20.00;43.60;;;;;;5092413;28;20149;-79
2024/01/18 11:40:51;;;;;;;7.93;6.38;;;19.90;43.70;;;;;;5092627;28;20020;-79
2024/01/18 11:43:17;;;;;;;8.02;5.78;;;19.90;43.70;;;;;;5092673;28;20047;-78
2024/01/18 11:45:55;;;;;;;10.77;7.50;;;20.00;43.60;;;;;;5092611;28;20040;-79
2024/01/18 11:48:21;;;;;;;15.25;8.10;;;19.90;43.60;;;;;;5092424;28;20050;-79
2024/01/18 11:50:47;;;;;;;13.23;7.93;;;20.00;43.60;;;;;;5092388;28;20456;-78
2024/01/18 11:53:14;;;;;;;13.80;6.55;;;20.00;43.70;;;;;;5093085;28;20122;-78
2024/01/18 11:55:48;;;;;;;16.75;7.82;;;20.00;43.60;;;;;;5092419;28;20073;-79
2024/01/18 11:58:15;;;;;;;12.57;7.47;;;20.10;43.50;;;;;;5091206;28;20111;-77
2024/01/18 12:00:42;;;;;;;11.40;7.05;;;20.00;43.40;;;;;;5092107;28;20028;-79
2024/01/18 12:03:12;;;;;;;10.32;6.82;;;20.10;43.50;;;;;;5092199;28;20055;-79
2024/01/18 12:05:40;;;;;;;12.15;6.30;;;20.20;43.50;;;;;;5092263;28;20393;-79
2024/01/18 12:08:08;;;;;;;13.40;7.80;;;20.10;43.40;;;;;;5092169;28;20043;-79
2024/01/18 12:10:34;;;;;;;11.90;7.88;;;20.10;43.40;;;;;;5092057;28;20028;-77
2024/01/18 12:13:00;;;;;;;13.95;7.88;;;20.20;43.50;;;;;;5092116;28;20072;-78
2024/01/18 12:15:28;;;;;;;11.38;7.50;;;20.00;43.40;;;;;;5092022;28;20044;-79
2024/01/18 12:17:57;;;;;;;11.15;7.07;;;20.20;43.50;;;;;;5091664;28;20059;-79
2024/01/18 12:20:23;;;;;;;11.35;6.70;;;20.10;43.50;;;;;;5090563;28;20039;-78
2024/01/18 12:22:49;;;;;;;10.93;7.38;;;20.10;43.50;;;;;;5092082;28;20028;-79
2024/01/18 12:25:15;;;;;;;9.07;6.03;;;20.10;43.50;;;;;;5091989;28;20091;-77
2024/01/18 12:27:42;;;;;;;12.85;7.53;;;20.20;43.50;;;;;;5091700;28;20028;-78
2024/01/18 12:30:08;;;;;;;13.85;7.22;;;20.00;43.40;;;;;;5091698;28;20036;-78
2024/01/18 12:32:36;;;;;;;13.40;7.63;;;20.10;43.60;;;;;;5091919;28;20085;-78
2024/01/18 12:35:02;;;;;;;14.13;7.03;;;20.10;43.50;;;;;;5092161;28;20032;-79
2024/01/18 12:37:29;;;;;;;10.80;7.55;;;20.10;43.70;;;;;;5091539;28;20051;-79
2024/01/18 12:39:55;;;;;;;14.93;8.18;;;19.90;43.70;;;;;;5091521;28;20131;-77